createdAt,value
2023-03-17T00:01:55.915Z,56.24
2023-03-17T00:04:24.708Z,56.36
2023-03-17T00:06:52.766Z,56.71
2023-03-17T00:09:22.320Z,56.94
2023-03-17T00:11:50.374Z,56.92
2023-03-17T00:14:21.577Z,57.25
2023-03-17T00:16:50.235Z,57.21
2023-03-17T00:19:21.723Z,57.03
2023-03-17T00:21:49.494Z,56.93
2023-03-17T00:24:17.408Z,57.65
2023-03-17T00:26:44.805Z,57.10
2023-03-17T00:29:13.396Z,57.54
2023-03-17T00:31:40.666Z,58.30
2023-03-17T00:34:12.232Z,58.21
2023-03-17T00:36:40.645Z,58.46
2023-03-17T00:39:17.476Z,58.67
2023-03-17T00:41:44.650Z,58.52
2023-03-17T00:44:12.264Z,58.45
2023-03-17T00:46:41.897Z,57.48
2023-03-17T00:49:20.237Z,56.86
2023-03-17T00:51:48.279Z,57.00
2023-03-17T00:54:16.456Z,56.99
2023-03-17T00:56:44.331Z,57.43
2023-03-17T00:59:22.142Z,58.41
2023-03-17T01:01:49.322Z,57.95
2023-03-17T01:04:17.064Z,57.58
2023-03-17T01:06:44.260Z,57.51
2023-03-17T01:09:15.002Z,57.62
2023-03-17T01:11:42.874Z,57.86
2023-03-17T01:14:12.072Z,58.02
2023-03-17T01:16:39.684Z,57.38
2023-03-17T01:19:07.098Z,57.30
2023-03-17T01:21:34.787Z,57.56
2023-03-17T01:24:02.784Z,57.74
2023-03-17T01:26:30.308Z,58.09
2023-03-17T01:28:57.513Z,58.69
2023-03-17T01:31:26.287Z,59.17
2023-03-17T01:33:54.036Z,59.42
2023-03-17T01:36:22.172Z,59.42
2023-03-17T01:38:50.900Z,59.61
2023-03-17T01:41:19.088Z,59.24
2023-03-17T01:43:46.462Z,59.29
2023-03-17T01:46:29.331Z,59.65
2023-03-17T01:49:09.413Z,59.83
2023-03-17T01:51:47.591Z,59.95
2023-03-17T01:54:27.131Z,60.16
2023-03-17T01:56:57.466Z,60.09
2023-03-17T01:59:29.132Z,59.97
2023-03-17T02:02:02.329Z,59.89
2023-03-17T02:04:29.918Z,59.04
2023-03-17T02:06:58.923Z,58.96
2023-03-17T02:09:27.318Z,58.64
2023-03-17T02:11:56.575Z,58.93
2023-03-17T02:14:23.769Z,58.67
2023-03-17T02:16:51.360Z,58.51
2023-03-17T02:19:18.595Z,58.78
2023-03-17T02:21:57.320Z,59.22
2023-03-17T02:24:35.392Z,59.09
2023-03-17T02:27:09.058Z,59.84
2023-03-17T02:29:37.819Z,59.46
2023-03-17T02:32:06.483Z,59.99
2023-03-17T02:34:34.848Z,60.64
2023-03-17T02:37:05.947Z,59.89
2023-03-17T02:39:33.089Z,59.73
2023-03-17T02:42:00.223Z,60.03
2023-03-17T02:44:27.772Z,60.33
2023-03-17T02:46:54.952Z,60.14
2023-03-17T02:49:22.844Z,60.41
2023-03-17T02:51:50.730Z,60.51
2023-03-17T02:54:17.919Z,60.39
2023-03-17T02:56:45.877Z,60.80
2023-03-17T02:59:13.250Z,61.42
2023-03-17T03:01:40.492Z,61.75
2023-03-17T03:04:10.771Z,62.15
2023-03-17T03:06:39.834Z,62.15
2023-03-17T03:09:06.955Z,62.43
2023-03-17T03:11:34.085Z,62.66
2023-03-17T03:14:01.487Z,62.76
2023-03-17T03:16:28.544Z,63.03
2023-03-17T03:18:56.861Z,63.84
2023-03-17T03:21:24.365Z,64.28
2023-03-17T03:23:51.546Z,63.41
2023-03-17T03:26:19.192Z,62.81
2023-03-17T03:28:46.877Z,62.53
2023-03-17T03:31:14.161Z,62.37
2023-03-17T03:33:41.939Z,62.07
2023-03-17T03:36:09.903Z,62.63
2023-03-17T03:38:37.183Z,63.12
2023-03-17T03:41:04.420Z,63.42
2023-03-17T03:43:31.846Z,64.03
2023-03-17T03:46:00.222Z,64.53
2023-03-17T03:48:28.360Z,64.86
2023-03-17T03:50:57.792Z,64.91
2023-03-17T03:53:25.266Z,65.31
2023-03-17T03:55:52.664Z,65.46
2023-03-17T03:58:20.232Z,65.24
2023-03-17T04:00:47.750Z,64.66
2023-03-17T04:03:16.026Z,64.57
2023-03-17T04:05:43.358Z,64.58
2023-03-17T04:08:11.346Z,64.81
2023-03-17T04:10:38.737Z,64.45
2023-03-17T04:13:06.613Z,64.45
2023-03-17T04:15:33.791Z,64.31
2023-03-17T04:18:01.189Z,64.50
2023-03-17T04:20:28.963Z,64.75
2023-03-17T04:22:56.324Z,65.00
2023-03-17T04:25:23.763Z,64.77
2023-03-17T04:27:51.014Z,64.96
2023-03-17T04:30:18.380Z,64.68
2023-03-17T04:32:46.460Z,64.77
2023-03-17T04:35:16.125Z,64.90
2023-03-17T04:37:43.812Z,65.10
2023-03-17T04:40:13.360Z,64.82
2023-03-17T04:42:40.715Z,65.20
2023-03-17T04:45:11.235Z,65.45
2023-03-17T04:47:39.433Z,65.44
2023-03-17T04:50:08.921Z,65.85
2023-03-17T04:52:36.920Z,65.86
2023-03-17T04:55:05.798Z,65.88
2023-03-17T04:57:33.189Z,65.82
2023-03-17T05:00:00.307Z,66.03
2023-03-17T05:02:28.260Z,67.06
2023-03-17T05:04:55.521Z,67.56
2023-03-17T05:07:22.627Z,67.74
2023-03-17T05:09:50.224Z,67.85
2023-03-17T05:12:17.297Z,67.72
2023-03-17T05:14:44.403Z,67.59
2023-03-17T05:17:11.948Z,67.34
2023-03-17T05:19:39.036Z,67.27
2023-03-17T05:22:06.274Z,66.95
2023-03-17T05:24:33.855Z,66.92
2023-03-17T05:27:01.750Z,66.65
2023-03-17T05:29:29.897Z,66.21
2023-03-17T05:31:57.420Z,66.46
2023-03-17T05:34:24.607Z,66.09
2023-03-17T05:36:51.794Z,66.22
2023-03-17T05:39:19.168Z,65.57
2023-03-17T05:41:47.202Z,65.19
2023-03-17T05:44:14.655Z,64.57
2023-03-17T05:46:42.219Z,64.86
2023-03-17T05:49:10.126Z,63.85
2023-03-17T05:51:37.442Z,63.25
2023-03-17T05:54:05.144Z,63.98
2023-03-17T05:56:33.844Z,62.04
2023-03-17T05:59:01.933Z,61.50
2023-03-17T06:01:30.121Z,61.29
2023-03-17T06:03:57.622Z,60.94
2023-03-17T06:06:25.807Z,61.02
2023-03-17T06:08:53.000Z,59.79
2023-03-17T06:11:21.574Z,59.48
2023-03-17T06:13:48.837Z,58.52
2023-03-17T06:16:17.651Z,58.79
2023-03-17T06:18:46.135Z,58.53
2023-03-17T06:21:13.806Z,58.32
2023-03-17T06:23:40.984Z,57.54
2023-03-17T06:26:08.486Z,57.82
2023-03-17T06:28:35.768Z,57.55
2023-03-17T06:31:05.252Z,57.39
2023-03-17T06:33:34.589Z,56.88
2023-03-17T06:36:01.862Z,57.05
2023-03-17T06:38:29.019Z,57.87
2023-03-17T06:40:56.359Z,56.96
2023-03-17T06:43:25.082Z,56.80
2023-03-17T06:45:52.755Z,56.35
2023-03-17T06:48:20.173Z,55.60
2023-03-17T06:50:50.499Z,56.80
2023-03-17T06:53:17.635Z,55.88
2023-03-17T06:55:45.097Z,56.30
2023-03-17T06:58:13.212Z,55.32
2023-03-17T07:00:40.671Z,55.16
2023-03-17T07:03:09.905Z,54.64
2023-03-17T07:05:40.055Z,55.45
2023-03-17T07:08:07.902Z,54.96
2023-03-17T07:10:36.703Z,55.11
2023-03-17T07:13:06.044Z,53.78
2023-03-17T07:15:35.846Z,54.17
2023-03-17T07:18:04.073Z,54.29
2023-03-17T07:20:31.749Z,54.67
2023-03-17T07:22:59.367Z,54.92
2023-03-17T07:25:26.724Z,54.54
2023-03-17T07:27:53.807Z,54.04
2023-03-17T07:30:21.739Z,54.30
2023-03-17T07:32:49.100Z,54.33
2023-03-17T07:35:16.598Z,55.18
2023-03-17T07:37:44.613Z,53.87
2023-03-17T07:40:12.245Z,55.01
2023-03-17T07:42:39.377Z,55.03
2023-03-17T07:45:07.946Z,54.03
2023-03-17T07:47:35.263Z,56.13
2023-03-17T07:50:02.608Z,54.00
2023-03-17T07:52:30.410Z,55.32
2023-03-17T07:54:58.420Z,55.09
2023-03-17T07:57:25.527Z,54.51
2023-03-17T07:59:53.004Z,53.79
2023-03-17T08:02:21.145Z,53.69
2023-03-17T08:04:48.826Z,53.69
2023-03-17T08:07:15.897Z,50.61
2023-03-17T08:09:43.077Z,51.28
2023-03-17T08:12:10.809Z,52.22
2023-03-17T08:14:37.797Z,53.21
2023-03-17T08:17:05.239Z,50.63
2023-03-17T08:19:32.679Z,51.08
2023-03-17T08:21:59.926Z,53.01
2023-03-17T08:24:27.115Z,52.13
2023-03-17T08:26:54.542Z,52.77
2023-03-17T08:29:21.694Z,51.76
2023-03-17T08:31:48.740Z,51.43
2023-03-17T08:34:16.562Z,49.54
2023-03-17T08:36:43.659Z,48.88
2023-03-17T08:39:11.322Z,49.59
2023-03-17T08:41:38.898Z,48.96
2023-03-17T08:44:05.966Z,51.97
2023-03-17T08:46:33.144Z,50.21
2023-03-17T08:49:01.930Z,50.13
2023-03-17T08:51:36.013Z,48.70
2023-03-17T08:54:04.059Z,49.13
2023-03-17T08:56:31.100Z,50.44
2023-03-17T08:58:58.537Z,47.89
2023-03-17T09:01:27.392Z,46.05
2023-03-17T09:03:55.120Z,45.46
2023-03-17T09:06:22.707Z,46.08
2023-03-17T09:08:55.259Z,45.86
2023-03-17T09:11:25.431Z,45.60
2023-03-17T09:13:53.459Z,43.44
2023-03-17T09:16:20.588Z,46.46
2023-03-17T09:18:47.633Z,42.47
2023-03-17T09:21:15.985Z,44.73
2023-03-17T09:23:43.486Z,45.04
2023-03-17T09:26:12.570Z,43.70
2023-03-17T09:28:39.956Z,45.02
2023-03-17T09:31:11.612Z,43.71
2023-03-17T09:33:40.693Z,43.23
2023-03-17T09:36:09.758Z,41.36
2023-03-17T09:38:37.513Z,43.02
2023-03-17T09:41:12.166Z,42.11
2023-03-17T09:43:45.756Z,43.85
2023-03-17T09:46:31.663Z,43.06
2023-03-17T09:49:07.362Z,41.69
2023-03-17T09:51:35.782Z,41.27
2023-03-17T09:54:18.921Z,39.34
2023-03-17T09:56:53.255Z,40.34
2023-03-17T09:59:28.172Z,41.55
2023-03-17T10:01:56.060Z,40.53
2023-03-17T10:04:24.367Z,39.67
2023-03-17T10:06:53.036Z,40.98
2023-03-17T10:09:42.150Z,38.82
2023-03-17T10:12:15.407Z,39.36
2023-03-17T10:14:56.500Z,39.83
2023-03-17T10:17:30.041Z,42.57
2023-03-17T10:19:57.105Z,40.18
2023-03-17T10:22:58.204Z,40.10
2023-03-17T10:25:29.433Z,38.68
2023-03-17T10:28:03.612Z,39.14
2023-03-17T10:30:35.745Z,37.11
2023-03-17T10:33:07.124Z,39.89
2023-03-17T10:35:36.645Z,37.54
2023-03-17T10:38:24.181Z,40.09
2023-03-17T10:41:00.045Z,38.82
2023-03-17T10:43:36.368Z,37.83
2023-03-17T10:46:06.406Z,40.32
2023-03-17T10:48:38.565Z,38.53
2023-03-17T10:51:08.007Z,38.78
2023-03-17T10:53:43.328Z,36.46
2023-03-17T10:56:21.549Z,38.86
2023-03-17T10:58:51.505Z,36.67
2023-03-17T11:01:22.785Z,37.76
2023-03-17T11:03:50.952Z,35.96
2023-03-17T11:06:20.869Z,36.03
2023-03-17T11:08:50.886Z,37.39
2023-03-17T11:11:33.184Z,35.33
2023-03-17T11:14:11.637Z,36.05
2023-03-17T11:16:48.748Z,38.89
2023-03-17T11:19:17.337Z,35.04
2023-03-17T11:22:00.078Z,37.76
2023-03-17T11:24:33.620Z,37.76
2023-03-17T11:27:44.650Z,37.37
2023-03-17T11:30:20.070Z,37.65
2023-03-17T11:33:16.871Z,39.04
2023-03-17T11:35:54.676Z,35.67
2023-03-17T11:38:48.436Z,34.93
2023-03-17T11:41:15.683Z,37.75
2023-03-17T11:44:05.815Z,36.48
2023-03-17T11:46:56.006Z,34.91
2023-03-17T11:49:37.309Z,37.18
2023-03-17T11:52:07.372Z,35.24
2023-03-17T11:54:54.367Z,39.23
2023-03-17T11:57:27.414Z,35.37
2023-03-17T11:59:58.883Z,38.42
2023-03-17T12:02:58.908Z,34.97
2023-03-17T12:05:28.252Z,35.83
2023-03-17T12:08:07.667Z,36.12
2023-03-17T12:10:56.506Z,35.52
2023-03-17T12:13:45.535Z,34.23
2023-03-17T12:16:17.584Z,37.74
2023-03-17T12:19:12.390Z,38.01
2023-03-17T12:21:59.328Z,36.29
2023-03-17T12:24:34.804Z,34.40
2023-03-17T12:27:11.661Z,36.43
2023-03-17T12:29:52.553Z,38.47
2023-03-17T12:32:24.307Z,34.92
2023-03-17T12:34:59.727Z,36.53
2023-03-17T12:37:30.086Z,35.24
2023-03-17T12:40:16.658Z,37.80
2023-03-17T12:42:53.780Z,34.07
2023-03-17T12:45:47.388Z,37.21
2023-03-17T12:48:33.662Z,35.86
2023-03-17T12:51:32.228Z,35.21
2023-03-17T12:54:00.284Z,36.04
2023-03-17T12:56:34.433Z,36.37
2023-03-17T12:59:09.714Z,38.23
2023-03-17T13:01:44.638Z,35.95
2023-03-17T13:04:15.349Z,34.54
2023-03-17T13:06:45.847Z,33.95
2023-03-17T13:09:32.075Z,34.54
2023-03-17T13:12:00.608Z,34.26
2023-03-17T13:14:48.270Z,33.23
2023-03-17T13:17:24.581Z,36.14
2023-03-17T13:20:12.556Z,34.27
2023-03-17T13:22:44.330Z,35.10
2023-03-17T13:25:35.860Z,34.79
2023-03-17T13:28:12.015Z,34.92
2023-03-17T13:30:39.442Z,34.36
2023-03-17T13:33:12.276Z,35.53
2023-03-17T13:36:00.718Z,34.66
2023-03-17T13:39:04.928Z,34.74
2023-03-17T13:41:52.675Z,34.91
2023-03-17T13:44:19.689Z,36.94
2023-03-17T13:46:48.327Z,35.58
2023-03-17T13:49:18.698Z,37.43
2023-03-17T13:51:59.981Z,35.83
2023-03-17T13:54:30.599Z,34.15
2023-03-17T13:57:23.332Z,34.80
2023-03-17T13:59:51.171Z,35.75
2023-03-17T14:02:20.703Z,34.30
2023-03-17T14:04:58.168Z,34.78
2023-03-17T14:07:29.423Z,34.90
2023-03-17T14:10:00.548Z,34.47
2023-03-17T14:12:42.462Z,33.84
2023-03-17T14:15:28.085Z,34.18
2023-03-17T14:18:12.600Z,34.18
2023-03-17T14:20:40.768Z,34.85
2023-03-17T14:23:09.332Z,35.34
2023-03-17T14:25:38.397Z,34.85
2023-03-17T14:28:10.996Z,34.53
2023-03-17T14:30:38.897Z,36.45
2023-03-17T14:33:12.313Z,37.07
2023-03-17T14:35:44.705Z,36.45
2023-03-17T14:38:23.996Z,36.58
2023-03-17T14:41:18.803Z,35.89
2023-03-17T14:43:46.566Z,36.69
2023-03-17T14:46:22.199Z,35.94
2023-03-17T14:49:05.179Z,35.01
2023-03-17T14:51:39.182Z,33.91
2023-03-17T14:54:18.967Z,34.31
2023-03-17T14:56:52.220Z,35.08
2023-03-17T14:59:27.154Z,34.52
2023-03-17T15:01:56.450Z,36.60
2023-03-17T15:04:25.685Z,36.46
2023-03-17T15:06:53.974Z,35.67
2023-03-17T15:09:34.627Z,35.72
2023-03-17T15:12:18.563Z,35.94
2023-03-17T15:14:46.436Z,35.44
2023-03-17T15:17:19.481Z,34.73
2023-03-17T15:19:49.472Z,35.05
2023-03-17T15:22:26.280Z,35.50
2023-03-17T15:25:02.540Z,34.46
2023-03-17T15:27:31.151Z,35.08
2023-03-17T15:29:58.604Z,35.41
2023-03-17T15:32:26.935Z,35.54
2023-03-17T15:34:57.065Z,36.35
2023-03-17T15:37:29.345Z,36.53
2023-03-17T15:39:57.059Z,36.28
2023-03-17T15:42:30.667Z,36.75
2023-03-17T15:45:00.288Z,37.17
2023-03-17T15:47:29.196Z,36.93
2023-03-17T15:50:14.804Z,37.21
2023-03-17T15:52:42.772Z,35.53
2023-03-17T15:55:21.506Z,35.49
2023-03-17T15:57:55.038Z,36.44
2023-03-17T16:00:24.557Z,36.90
2023-03-17T16:02:57.165Z,37.16
2023-03-17T16:05:27.023Z,37.69
2023-03-17T16:07:54.824Z,37.27
2023-03-17T16:10:27.816Z,38.55
2023-03-17T16:12:55.656Z,37.90
2023-03-17T16:15:31.589Z,37.17
2023-03-17T16:18:02.520Z,37.57
2023-03-17T16:20:38.875Z,38.07
2023-03-17T16:23:11.760Z,38.87
2023-03-17T16:25:38.903Z,38.13
2023-03-17T16:28:20.342Z,38.85
2023-03-17T16:30:48.902Z,39.93
2023-03-17T16:33:27.558Z,40.32
2023-03-17T16:35:55.910Z,40.24
2023-03-17T16:38:25.064Z,40.40
2023-03-17T16:40:53.907Z,41.19
2023-03-17T16:43:33.589Z,41.37
2023-03-17T16:46:03.021Z,41.86
2023-03-17T16:48:31.260Z,42.56
2023-03-17T16:50:58.826Z,43.34
2023-03-17T16:53:26.325Z,44.02
2023-03-17T16:55:54.395Z,44.00
2023-03-17T16:58:26.622Z,43.61
2023-03-17T17:00:59.676Z,43.79
2023-03-17T17:03:27.828Z,43.76
2023-03-17T17:05:55.820Z,44.42
2023-03-17T17:08:23.163Z,44.06
2023-03-17T17:10:50.342Z,44.42
2023-03-17T17:13:17.742Z,44.47
2023-03-17T17:15:44.824Z,44.61
2023-03-17T17:18:17.374Z,45.08
2023-03-17T17:20:45.936Z,45.23
2023-03-17T17:23:16.144Z,45.80
2023-03-17T17:25:43.755Z,45.66
2023-03-17T17:28:12.468Z,46.34
2023-03-17T17:30:42.985Z,46.61
2023-03-17T17:33:10.909Z,47.30
2023-03-17T17:35:38.587Z,47.19
2023-03-17T17:38:11.137Z,47.42
2023-03-17T17:40:38.503Z,46.95
2023-03-17T17:43:05.691Z,46.99
2023-03-17T17:45:32.963Z,46.90
2023-03-17T17:48:00.389Z,46.70
2023-03-17T17:50:28.860Z,47.14
2023-03-17T17:53:02.653Z,47.10
2023-03-17T17:55:29.982Z,47.44
2023-03-17T17:57:56.981Z,47.31
2023-03-17T18:00:25.707Z,47.23
2023-03-17T18:02:53.016Z,46.56
2023-03-17T18:05:20.340Z,46.26
2023-03-17T18:07:47.456Z,46.70
2023-03-17T18:10:19.105Z,46.50
2023-03-17T18:12:46.338Z,46.89
2023-03-17T18:15:13.529Z,46.66
2023-03-17T18:17:43.054Z,46.79
2023-03-17T18:20:12.608Z,46.68
2023-03-17T18:22:39.922Z,47.06
2023-03-17T18:25:09.848Z,47.19
2023-03-17T18:27:38.122Z,47.32
2023-03-17T18:30:07.416Z,47.88
2023-03-17T18:32:35.181Z,47.65
2023-03-17T18:35:06.607Z,47.61
2023-03-17T18:37:33.905Z,47.82
2023-03-17T18:40:13.304Z,47.36
2023-03-17T18:42:42.422Z,48.08
2023-03-17T18:45:11.646Z,48.04
2023-03-17T18:47:39.140Z,48.48
2023-03-17T18:50:08.084Z,48.96
2023-03-17T18:52:37.393Z,49.09
2023-03-17T18:55:05.293Z,49.39
2023-03-17T18:57:32.539Z,49.44
2023-03-17T19:00:00.041Z,49.65
2023-03-17T19:02:27.123Z,50.20
2023-03-17T19:04:54.478Z,50.18
2023-03-17T19:07:22.839Z,50.74
2023-03-17T19:09:49.946Z,50.94
2023-03-17T19:12:17.073Z,51.37
2023-03-17T19:14:44.642Z,51.92
2023-03-17T19:17:11.746Z,51.15
2023-03-17T19:19:39.127Z,51.61
2023-03-17T19:22:06.521Z,51.71
2023-03-17T19:24:36.069Z,51.59
2023-03-17T19:27:03.908Z,51.35
2023-03-17T19:29:32.506Z,52.61
2023-03-17T19:31:59.675Z,52.50
2023-03-17T19:34:27.357Z,52.51
2023-03-17T19:36:54.787Z,52.69
2023-03-17T19:39:22.188Z,52.90
2023-03-17T19:41:53.322Z,53.44
2023-03-17T19:44:24.225Z,52.67
2023-03-17T19:46:51.292Z,53.06
2023-03-17T19:49:19.858Z,53.11
2023-03-17T19:51:47.537Z,53.87
2023-03-17T19:54:14.836Z,53.78
2023-03-17T19:56:43.309Z,53.52
2023-03-17T19:59:10.756Z,53.62
2023-03-17T20:01:38.378Z,53.19
2023-03-17T20:04:09.406Z,53.96
2023-03-17T20:06:36.689Z,53.58
2023-03-17T20:09:04.336Z,53.06
2023-03-17T20:11:35.926Z,53.10
2023-03-17T20:14:03.271Z,53.22
2023-03-17T20:16:33.768Z,53.78
2023-03-17T20:19:02.421Z,53.87
2023-03-17T20:21:29.752Z,53.53
2023-03-17T20:23:56.943Z,53.44
2023-03-17T20:26:26.928Z,53.26
2023-03-17T20:28:54.029Z,53.64
2023-03-17T20:31:22.758Z,53.46
2023-03-17T20:33:50.506Z,54.13
2023-03-17T20:36:17.507Z,53.44
2023-03-17T20:38:44.513Z,54.02
2023-03-17T20:41:14.738Z,53.54
2023-03-17T20:43:42.059Z,52.96
2023-03-17T20:46:15.198Z,53.08
2023-03-17T20:48:44.223Z,53.41
2023-03-17T20:51:16.311Z,53.14
2023-03-17T20:53:46.298Z,53.35
2023-03-17T20:56:15.668Z,52.78
2023-03-17T20:58:43.541Z,53.04
2023-03-17T21:01:12.854Z,52.37
2023-03-17T21:03:41.110Z,52.30
2023-03-17T21:06:08.823Z,52.28
2023-03-17T21:08:37.741Z,52.20
2023-03-17T21:11:06.837Z,52.35
2023-03-17T21:13:34.599Z,52.84
2023-03-17T21:16:02.515Z,52.55
2023-03-17T21:18:29.751Z,52.97
2023-03-17T21:20:56.940Z,52.98
2023-03-17T21:23:24.510Z,53.17
2023-03-17T21:25:56.052Z,53.20
2023-03-17T21:28:23.362Z,53.44
2023-03-17T21:30:51.299Z,53.04
2023-03-17T21:33:18.468Z,52.83
2023-03-17T21:35:45.672Z,53.16
2023-03-17T21:38:13.144Z,53.78
2023-03-17T21:40:40.545Z,53.91
2023-03-17T21:43:07.992Z,54.06
2023-03-17T21:45:35.599Z,55.05
2023-03-17T21:48:02.926Z,54.60
2023-03-17T21:50:31.504Z,54.37
2023-03-17T21:52:59.370Z,54.16
2023-03-17T21:55:27.206Z,54.20
2023-03-17T21:57:54.312Z,54.68
2023-03-17T22:00:23.584Z,54.22
2023-03-17T22:02:52.695Z,54.96
2023-03-17T22:05:20.741Z,55.20
2023-03-17T22:07:48.366Z,54.68
2023-03-17T22:10:15.872Z,54.90
2023-03-17T22:12:43.165Z,54.68
2023-03-17T22:15:10.711Z,54.06
2023-03-17T22:17:39.694Z,54.09
2023-03-17T22:20:07.935Z,54.58
2023-03-17T22:22:35.844Z,54.07
2023-03-17T22:25:06.172Z,53.94
2023-03-17T22:27:33.647Z,54.04
2023-03-17T22:30:00.947Z,54.31
2023-03-17T22:32:28.420Z,54.79
2023-03-17T22:34:56.719Z,54.83
2023-03-17T22:37:24.732Z,54.49
2023-03-17T22:39:52.281Z,54.40
2023-03-17T22:42:19.366Z,54.29
2023-03-17T22:44:46.579Z,54.56
2023-03-17T22:47:15.960Z,54.39
2023-03-17T22:49:45.108Z,55.08
2023-03-17T22:52:12.213Z,54.73
2023-03-17T22:54:40.806Z,54.55
2023-03-17T22:57:07.919Z,54.07
2023-03-17T22:59:35.003Z,54.19
2023-03-17T23:02:02.654Z,53.91
2023-03-17T23:04:30.087Z,53.35
2023-03-17T23:06:58.977Z,53.70
2023-03-17T23:09:26.606Z,53.60
2023-03-17T23:11:53.682Z,52.86
2023-03-17T23:14:20.771Z,53.67
2023-03-17T23:16:48.713Z,53.73
2023-03-17T23:19:16.655Z,54.01
2023-03-17T23:21:43.900Z,53.65
2023-03-17T23:24:11.719Z,53.42
2023-03-17T23:26:38.838Z,53.31
2023-03-17T23:29:08.362Z,54.21
2023-03-17T23:31:37.064Z,53.36
2023-03-17T23:34:06.616Z,53.87
2023-03-17T23:36:35.099Z,53.97
2023-03-17T23:39:02.491Z,53.63
2023-03-17T23:41:29.540Z,53.71
2023-03-17T23:43:56.920Z,54.47
2023-03-17T23:46:25.783Z,54.11
2023-03-17T23:48:53.086Z,53.99
2023-03-17T23:51:20.140Z,54.15
2023-03-17T23:53:48.075Z,54.26
2023-03-17T23:56:15.445Z,54.25
2023-03-17T23:58:43.473Z,54.33
